EGBB

Birmingham International Airport

Birmingham, United Kingdom
METAR EGBB 200020Z 18004KT 9999 SCT046 12/09 Q1012
Observed Flight Rules
Sep-20 @ 00:20 UTC (35 minutes ago) Visual Flight Rules
Wind Visibility Clouds
180° at 4 knots 10,000+ meters
  • Scattered at 4,600' AGL
Temperatures Readings
Current 12°C / 54°F
Dewpoint 9°C / 48°F
Humidity 82%
Altimeter 29.88" Hg
Pressure 1012 hPa
Elevation 99
METAR EGBB 200020Z 18004KT 9999 SCT046 12/09 Q1012
Observed Flight Rules
Sep-20 @ 00:20 UTC
(35 minutes ago)
VFR
Wind Visibility
180° at 4 knots 10,000+ meters
Clouds
  • Scattered at 4,600' AGL
Temperature Dewpoint
12°C / 54°F 9°C / 48°F
Humidity Altimeter Pressure
82% 29.88" Hg 1012 hPa